Time;durP1;ratioP1;P1;durP2;ratioP2;P2;SDS_P1;SDS_P2;PMS_P1;PMS_P2;Temp;Humidity;BMP_temperature;BMP_pressure;BME280_temperature;BME280_humidity;BME280_pressure;Samples;Min_cycle;Max_cycle;Signal;HPM_P1;HPM_P2
2023/12/02 00:01:57;;;;;;;24.37;11.40;;;-0.40;99.90;;;;;;5035417;28;20468;-45
2023/12/02 00:04:23;;;;;;;22.63;11.10;;;-0.50;99.90;;;;;;5035094;28;20088;-45
2023/12/02 00:06:49;;;;;;;21.88;10.40;;;-0.50;99.90;;;;;;5035797;28;20046;-45
2023/12/02 00:09:14;;;;;;;24.65;11.38;;;-0.40;99.90;;;;;;5035135;28;20475;-45
2023/12/02 00:11:40;;;;;;;25.45;10.93;;;-0.40;99.90;;;;;;5035309;28;20522;-45
2023/12/02 00:14:06;;;;;;;25.90;11.32;;;-0.40;99.90;;;;;;5034978;28;20053;-45
2023/12/02 00:16:31;;;;;;;22.85;10.43;;;-0.40;99.90;;;;;;5035061;28;20083;-44
2023/12/02 00:18:57;;;;;;;23.05;11.30;;;-0.50;99.90;;;;;;5034792;28;20057;-45
2023/12/02 00:21:22;;;;;;;23.33;10.98;;;-0.40;99.90;;;;;;5034984;28;20064;-45
2023/12/02 00:23:48;;;;;;;24.90;11.02;;;-0.40;99.90;;;;;;5034862;28;20056;-44
2023/12/02 00:26:14;;;;;;;26.35;12.00;;;-0.40;99.90;;;;;;5035148;28;20097;-44
2023/12/02 00:28:40;;;;;;;24.90;11.38;;;-0.40;99.90;;;;;;5034959;28;20407;-45
2023/12/02 00:31:06;;;;;;;24.17;11.38;;;-0.40;99.90;;;;;;5034778;28;20079;-45
2023/12/02 00:33:31;;;;;;;25.77;11.85;;;-0.40;99.90;;;;;;5034567;28;20395;-44
2023/12/02 00:35:57;;;;;;;24.33;11.15;;;-0.40;99.90;;;;;;5034445;28;20050;-45
2023/12/02 00:38:23;;;;;;;25.17;11.77;;;-0.40;99.90;;;;;;5034652;28;20083;-45
2023/12/02 00:40:48;;;;;;;23.25;10.85;;;-0.40;99.90;;;;;;5034543;28;20049;-45
2023/12/02 00:43:14;;;;;;;24.75;11.40;;;-0.40;99.90;;;;;;5034525;28;20132;-46
2023/12/02 00:45:40;;;;;;;23.75;11.02;;;-0.40;99.90;;;;;;5034439;28;20099;-45
2023/12/02 00:48:05;;;;;;;24.63;11.60;;;-0.40;99.90;;;;;;5034170;28;20096;-45
2023/12/02 00:50:31;;;;;;;22.65;11.20;;;-0.40;99.90;;;;;;5034544;28;20132;-45
2023/12/02 00:52:57;;;;;;;23.83;11.20;;;-0.40;99.90;;;;;;5034612;28;20400;-45
2023/12/02 00:55:23;;;;;;;25.02;11.50;;;-0.40;99.90;;;;;;5033812;28;20128;-46
2023/12/02 00:57:49;;;;;;;21.87;10.57;;;-0.40;99.90;;;;;;5034256;28;20067;-45
2023/12/02 01:00:15;;;;;;;24.05;11.05;;;-0.40;99.90;;;;;;5034138;28;20284;-49
2023/12/02 01:02:44;;;;;;;22.00;10.63;;;-0.40;99.90;;;;;;5016467;28;20087;-46
2023/12/02 01:05:10;;;;;;;25.77;10.88;;;-0.40;99.90;;;;;;5034433;28;20299;-49
2023/12/02 01:07:35;;;;;;;24.27;10.75;;;-0.40;99.90;;;;;;5034006;28;20053;-46
2023/12/02 01:10:04;;;;;;;23.65;11.70;;;-0.40;99.90;;;;;;5033857;28;20049;-46
2023/12/02 01:12:29;;;;;;;25.95;11.93;;;-0.40;99.90;;;;;;5034204;28;20052;-45
2023/12/02 01:14:55;;;;;;;23.23;11.70;;;-0.40;99.90;;;;;;5033756;28;20046;-50
2023/12/02 01:17:21;;;;;;;25.10;11.82;;;-0.40;99.90;;;;;;5033821;28;20088;-50
2023/12/02 01:19:46;;;;;;;22.50;10.55;;;-0.40;99.90;;;;;;5034374;28;20079;-49
2023/12/02 01:22:12;;;;;;;23.42;11.82;;;-0.40;99.90;;;;;;5033925;28;20049;-49
2023/12/02 01:24:38;;;;;;;26.73;12.32;;;-0.40;99.90;;;;;;5033867;28;20045;-48
2023/12/02 01:27:04;;;;;;;23.80;10.60;;;-0.40;99.90;;;;;;5033610;28;20048;-49
2023/12/02 01:29:30;;;;;;;24.50;11.45;;;-0.40;99.90;;;;;;5033768;28;20124;-46
2023/12/02 01:31:56;;;;;;;22.30;10.82;;;-0.40;99.90;;;;;;5033716;28;20479;-46
2023/12/02 01:34:21;;;;;;;25.60;12.32;;;-0.40;99.90;;;;;;5033497;28;20492;-48
2023/12/02 01:36:47;;;;;;;29.77;14.25;;;-0.40;99.90;;;;;;5033744;28;20045;-48
2023/12/02 01:39:13;;;;;;;24.83;12.05;;;-0.40;99.90;;;;;;5033586;28;20052;-47
2023/12/02 01:41:40;;;;;;;27.10;13.68;;;-0.40;99.90;;;;;;5033789;28;20037;-47
2023/12/02 01:44:05;;;;;;;28.67;15.50;;;-0.40;99.90;;;;;;5033567;28;20136;-48
2023/12/02 01:46:31;;;;;;;26.05;11.80;;;-0.40;99.90;;;;;;5033396;28;20129;-46
2023/12/02 01:49:00;;;;;;;24.25;11.73;;;-0.40;99.90;;;;;;5033496;28;20494;-45
2023/12/02 01:51:27;;;;;;;22.52;11.75;;;-0.40;99.90;;;;;;5033579;28;20056;-45
2023/12/02 01:53:53;;;;;;;;;;;-0.40;99.90;;;;;;5033935;28;20090;-45
2023/12/02 01:56:19;;;;;;;27.60;11.32;;;-0.50;99.90;;;;;;5033518;28;20299;-45
2023/12/02 01:58:47;;;;;;;23.27;11.05;;;-0.50;99.90;;;;;;5033464;28;20053;-45
2023/12/02 02:01:12;;;;;;;26.48;11.77;;;-0.50;99.90;;;;;;5015788;28;20068;-45
2023/12/02 02:03:39;;;;;;;24.63;11.38;;;-0.50;99.90;;;;;;5033333;28;20045;-45
2023/12/02 02:06:06;;;;;;;25.20;11.68;;;-0.40;99.90;;;;;;5033744;28;20457;-45
2023/12/02 02:08:32;;;;;;;23.80;10.82;;;-0.50;99.90;;;;;;5037496;28;20076;-45
2023/12/02 02:10:58;;;;;;;18.88;9.27;;;-0.40;99.90;;;;;;5037514;28;20048;-45
2023/12/02 02:13:25;;;;;;;20.42;9.70;;;-0.40;99.90;;;;;;5037505;28;20049;-45
2023/12/02 02:15:51;;;;;;;21.77;9.38;;;-0.40;99.90;;;;;;5037177;28;20084;-47
2023/12/02 02:18:16;;;;;;;21.00;9.57;;;-0.40;99.90;;;;;;5037445;28;20053;-47
2023/12/02 02:20:51;;;;;;;21.67;10.05;;;-0.40;99.90;;;;;;5019617;28;20041;-48
2023/12/02 02:23:22;;;;;;;21.08;10.55;;;-0.40;99.90;;;;;;5019939;28;20049;-45
2023/12/02 02:25:52;;;;;;;23.83;9.60;;;-0.40;99.90;;;;;;5037134;28;20103;-47
2023/12/02 02:28:25;;;;;;;20.77;10.13;;;-0.40;99.90;;;;;;5036728;28;20049;-45
2023/12/02 02:30:51;;;;;;;21.80;9.90;;;-0.40;99.90;;;;;;5036999;28;20046;-47
2023/12/02 02:33:17;;;;;;;22.63;9.80;;;-0.40;99.90;;;;;;5036956;28;20049;-45
2023/12/02 02:35:43;;;;;;;24.40;9.53;;;-0.30;99.90;;;;;;5036984;28;20404;-44
2023/12/02 02:38:10;;;;;;;20.07;9.70;;;-0.30;99.90;;;;;;5036888;28;20053;-45
2023/12/02 02:40:36;;;;;;;23.45;10.13;;;-0.40;99.90;;;;;;5036688;28;20095;-46
2023/12/02 02:43:01;;;;;;;24.88;11.02;;;-0.40;99.90;;;;;;5036627;28;20462;-44
2023/12/02 02:45:27;;;;;;;19.95;9.63;;;-0.40;99.90;;;;;;5036658;28;20492;-45
2023/12/02 02:47:53;;;;;;;21.48;10.57;;;-0.30;99.90;;;;;;5036756;28;20056;-45
2023/12/02 02:50:19;;;;;;;20.27;10.23;;;-0.40;99.90;;;;;;5036747;28;20365;-46
2023/12/02 02:52:45;;;;;;;21.05;10.10;;;-0.40;99.90;;;;;;5036560;28;20048;-45
2023/12/02 02:55:11;;;;;;;22.95;10.60;;;-0.50;99.90;;;;;;5036481;28;20045;-45
2023/12/02 02:57:37;;;;;;;20.08;9.00;;;-0.60;99.90;;;;;;5018633;28;20064;-45
2023/12/02 03:00:09;;;;;;;21.30;10.45;;;-0.40;99.90;;;;;;5036510;28;20432;-45
2023/12/02 03:02:38;;;;;;;21.45;10.35;;;-0.50;99.90;;;;;;5036363;28;20511;-45
2023/12/02 03:05:04;;;;;;;18.67;8.82;;;-0.40;99.90;;;;;;5036358;28;20057;-45
2023/12/02 03:07:31;;;;;;;22.15;9.30;;;-0.40;99.90;;;;;;5036192;28;20049;-45
2023/12/02 03:09:57;;;;;;;18.50;8.85;;;-0.40;99.90;;;;;;5036164;28;20381;-45
2023/12/02 03:12:23;;;;;;;19.38;8.70;;;-0.40;99.90;;;;;;5036553;28;20048;-45
2023/12/02 03:14:50;;;;;;;20.08;9.18;;;-0.40;99.90;;;;;;5036293;28;20049;-45
2023/12/02 03:17:15;;;;;;;18.20;9.07;;;-0.40;99.90;;;;;;5018311;28;20098;-45
2023/12/02 03:19:41;;;;;;;19.38;9.05;;;-0.40;99.90;;;;;;5036127;28;20037;-45
2023/12/02 03:22:07;;;;;;;22.10;10.27;;;-0.40;99.90;;;;;;5018347;28;20159;-46
2023/12/02 03:24:32;;;;;;;20.85;9.07;;;-0.40;99.90;;;;;;5035865;28;20037;-45
2023/12/02 03:26:58;;;;;;;20.08;9.93;;;-0.40;99.90;;;;;;5035587;28;20531;-45
2023/12/02 03:29:24;;;;;;;21.88;10.23;;;-0.40;99.90;;;;;;5036216;28;20084;-45
2023/12/02 03:31:49;;;;;;;22.35;9.85;;;-0.30;99.90;;;;;;5035758;28;20053;-45
2023/12/02 03:34:15;;;;;;;22.27;9.90;;;-0.40;99.90;;;;;;5035686;28;20057;-49
2023/12/02 03:36:41;;;;;;;20.45;9.38;;;-0.30;99.90;;;;;;5035767;28;20041;-45
2023/12/02 03:39:06;;;;;;;21.50;9.95;;;-0.40;99.90;;;;;;5035397;28;20041;-45
2023/12/02 03:41:32;;;;;;;20.08;9.18;;;-0.40;99.90;;;;;;5035417;28;20492;-48
2023/12/02 03:43:58;;;;;;;19.60;10.07;;;-0.40;99.90;;;;;;5035604;28;20484;-46
2023/12/02 03:46:27;;;;;;;17.92;8.50;;;-0.40;99.90;;;;;;5035551;28;20053;-47
2023/12/02 03:48:52;;;;;;;20.27;9.30;;;-0.40;99.90;;;;;;5035513;28;20104;-44
2023/12/02 03:51:18;;;;;;;19.70;9.05;;;-0.40;99.90;;;;;;5035541;28;20042;-44
2023/12/02 03:53:45;;;;;;;18.60;8.80;;;-0.50;99.90;;;;;;5035535;28;20132;-45
2023/12/02 03:56:11;;;;;;;18.98;9.05;;;-0.50;99.90;;;;;;5035373;28;20049;-52
2023/12/02 03:58:37;;;;;;;18.83;8.50;;;-0.50;99.90;;;;;;5035479;28;20052;-50
2023/12/02 04:01:03;;;;;;;19.27;8.65;;;-0.50;99.90;;;;;;5035612;28;20487;-49
2023/12/02 04:03:28;;;;;;;19.83;9.32;;;-0.40;99.90;;;;;;5035144;28;20044;-50
2023/12/02 04:05:54;;;;;;;20.27;9.95;;;-0.50;99.90;;;;;;5035095;28;20049;-49
2023/12/02 04:08:20;;;;;;;16.85;8.05;;;-0.40;99.90;;;;;;5035268;28;20136;-50
2023/12/02 04:10:46;;;;;;;18.45;8.57;;;-0.50;99.90;;;;;;5034932;28;20132;-49
2023/12/02 04:13:12;;;;;;;16.27;8.30;;;-0.50;99.90;;;;;;5035230;28;20049;-49
2023/12/02 04:15:37;;;;;;;17.95;7.93;;;-0.50;99.90;;;;;;5035161;28;20048;-49
2023/12/02 04:18:03;;;;;;;16.73;7.88;;;-0.50;99.90;;;;;;5017422;28;20373;-49
2023/12/02 04:20:29;;;;;;;18.17;9.43;;;-0.50;99.90;;;;;;5035117;28;20408;-49
2023/12/02 04:22:55;;;;;;;18.15;8.50;;;-0.50;99.90;;;;;;5034714;28;20476;-49
2023/12/02 04:25:20;;;;;;;16.02;7.25;;;-0.50;99.90;;;;;;5034658;28;20055;-49
2023/12/02 04:27:46;;;;;;;16.88;7.70;;;-0.50;99.90;;;;;;5017971;28;20388;-46
2023/12/02 04:30:12;;;;;;;18.05;8.10;;;-0.50;99.90;;;;;;5034071;28;20047;-46
2023/12/02 04:32:38;;;;;;;18.55;8.52;;;-0.60;99.90;;;;;;5034654;28;20504;-45
2023/12/02 04:35:05;;;;;;;17.80;8.60;;;-0.50;99.90;;;;;;5034679;28;20057;-48
2023/12/02 04:37:31;;;;;;;17.60;8.98;;;-0.50;99.90;;;;;;5034454;28;20045;-45
2023/12/02 04:39:57;;;;;;;19.03;9.53;;;-0.50;99.90;;;;;;5016971;28;20052;-45
2023/12/02 04:42:23;;;;;;;18.67;8.25;;;-0.60;99.90;;;;;;5034553;28;20049;-45
2023/12/02 04:44:49;;;;;;;21.42;9.68;;;-0.60;99.90;;;;;;5034528;28;20053;-44
2023/12/02 04:47:15;;;;;;;22.27;9.65;;;-0.60;99.90;;;;;;5034499;28;20389;-45
2023/12/02 04:49:40;;;;;;;20.20;9.43;;;-0.60;99.90;;;;;;5034191;28;20041;-45
2023/12/02 04:52:06;;;;;;;21.50;9.98;;;-0.60;99.90;;;;;;5034117;28;20488;-45
2023/12/02 04:54:34;;;;;;;19.70;9.75;;;-0.60;99.90;;;;;;5034044;28;20041;-48
2023/12/02 04:57:00;;;;;;;19.83;9.18;;;-0.60;99.90;;;;;;5034348;28;20554;-48
2023/12/02 04:59:25;;;;;;;21.98;9.98;;;-0.60;99.90;;;;;;5033961;28;20499;-47
2023/12/02 05:01:51;;;;;;;21.80;10.35;;;-0.60;99.90;;;;;;5016615;28;20052;-45
2023/12/02 05:04:17;;;;;;;19.40;8.73;;;-0.60;99.90;;;;;;5016250;28;20103;-45
2023/12/02 05:06:43;;;;;;;21.75;9.90;;;-0.60;99.90;;;;;;5033994;28;20535;-45
2023/12/02 05:09:09;;;;;;;24.00;10.85;;;-0.60;99.90;;;;;;5034066;28;20049;-45
2023/12/02 05:11:35;;;;;;;22.45;10.43;;;-0.60;99.90;;;;;;5034180;28;20045;-45
2023/12/02 05:14:01;;;;;;;21.60;10.15;;;-0.70;99.90;;;;;;5033972;28;20057;-45
2023/12/02 05:16:27;;;;;;;21.42;9.32;;;-0.60;99.90;;;;;;5033889;28;20045;-46
2023/12/02 05:18:53;;;;;;;20.92;10.23;;;-0.70;99.90;;;;;;5033959;28;20049;-45
2023/12/02 05:21:18;;;;;;;24.73;11.20;;;-0.60;99.90;;;;;;5033749;28;20045;-45
2023/12/02 05:23:45;;;;;;;24.98;11.43;;;-0.60;99.90;;;;;;5033996;28;20129;-45
2023/12/02 05:26:11;;;;;;;22.73;9.93;;;-0.70;99.90;;;;;;5033669;28;20037;-45
2023/12/02 05:28:38;;;;;;;24.77;11.53;;;-0.60;99.90;;;;;;5016251;28;20045;-45
2023/12/02 05:31:05;;;;;;;23.23;10.32;;;-0.70;99.90;;;;;;5033794;28;20049;-44
2023/12/02 05:33:30;;;;;;;22.95;10.80;;;-0.70;99.90;;;;;;5033744;28;20510;-45
2023/12/02 05:35:56;;;;;;;25.30;10.93;;;-0.70;99.90;;;;;;5033585;28;20037;-45
2023/12/02 05:38:22;;;;;;;24.42;11.00;;;-0.70;99.90;;;;;;5033675;28;20534;-45
2023/12/02 05:40:47;;;;;;;24.40;11.18;;;-0.70;99.90;;;;;;5016267;28;20096;-45
2023/12/02 05:43:13;;;;;;;23.90;11.25;;;-0.70;99.90;;;;;;5033652;28;20049;-44
2023/12/02 05:45:39;;;;;;;24.17;11.13;;;-0.70;99.90;;;;;;5033649;28;20068;-46
2023/12/02 05:48:05;;;;;;;23.17;11.23;;;-0.70;99.90;;;;;;5033588;28;20041;-45
2023/12/02 05:50:31;;;;;;;20.37;9.77;;;-0.80;99.90;;;;;;5033638;28;20051;-45
2023/12/02 05:52:57;;;;;;;26.07;12.07;;;-0.70;99.90;;;;;;5033354;28;20064;-45
2023/12/02 05:55:22;;;;;;;24.40;11.30;;;-0.70;99.90;;;;;;5033300;28;20041;-45
2023/12/02 05:57:48;;;;;;;23.00;10.70;;;-0.70;99.90;;;;;;5033758;28;20120;-45
2023/12/02 06:00:17;;;;;;;26.98;11.40;;;-0.70;99.90;;;;;;5033499;28;20488;-45
2023/12/02 06:02:43;;;;;;;22.02;10.20;;;-0.70;99.90;;;;;;5016211;28;20085;-45
2023/12/02 06:05:09;;;;;;;23.05;10.98;;;-0.70;99.90;;;;;;5033444;28;20167;-45
2023/12/02 06:07:34;;;;;;;24.67;11.73;;;-0.70;99.90;;;;;;5033283;28;20041;-45
2023/12/02 06:10:00;;;;;;;23.20;11.18;;;-0.70;99.90;;;;;;5033409;28;20049;-45
2023/12/02 06:12:26;;;;;;;22.48;11.93;;;-0.70;99.90;;;;;;5033479;28;20041;-48
2023/12/02 06:14:52;;;;;;;22.40;11.13;;;-0.70;99.90;;;;;;5033455;28;20087;-46
2023/12/02 06:17:17;;;;;;;25.40;10.95;;;-0.70;99.90;;;;;;5033182;28;20037;-48
2023/12/02 06:19:43;;;;;;;21.50;10.32;;;-0.70;99.90;;;;;;5032982;28;20051;-49
2023/12/02 06:22:09;;;;;;;24.58;11.05;;;-0.70;99.90;;;;;;5033384;28;20476;-48
2023/12/02 06:24:34;;;;;;;25.58;11.43;;;-0.70;99.90;;;;;;5033488;28;20488;-46
2023/12/02 06:27:00;;;;;;;24.60;11.30;;;-0.70;99.90;;;;;;5033091;28;20476;-45
2023/12/02 06:29:26;;;;;;;24.15;10.77;;;-0.70;99.90;;;;;;5033094;28;20516;-45
2023/12/02 06:31:52;;;;;;;23.55;10.77;;;-0.70;99.90;;;;;;5033133;28;20041;-45
2023/12/02 06:34:18;;;;;;;24.33;11.02;;;-0.60;99.90;;;;;;5033245;28;20053;-45
2023/12/02 06:36:44;;;;;;;25.60;12.48;;;-0.70;99.90;;;;;;5015433;28;20112;-45
2023/12/02 06:39:12;;;;;;;23.30;11.75;;;-0.70;99.90;;;;;;5033079;28;20049;-45
2023/12/02 06:41:41;;;;;;;24.95;10.98;;;-0.60;99.90;;;;;;5033095;28;20084;-44
2023/12/02 06:44:10;;;;;;;22.48;10.77;;;-0.60;99.90;;;;;;5032850;28;20506;-45
2023/12/02 06:46:36;;;;;;;22.58;10.85;;;-0.60;99.90;;;;;;5032846;28;20404;-44
2023/12/02 06:49:02;;;;;;;24.23;11.02;;;-0.60;99.90;;;;;;5032835;28;20124;-49
2023/12/02 06:51:29;;;;;;;21.00;10.52;;;-0.60;99.90;;;;;;5032958;28;20511;-48
2023/12/02 06:53:55;;;;;;;;;;;-0.60;99.90;;;;;;5036817;28;20124;-50
2023/12/02 06:56:22;;;;;;;24.02;10.07;;;-0.70;99.90;;;;;;5036560;28;19921;-49
2023/12/02 06:58:49;;;;;;;24.92;12.00;;;-0.60;99.90;;;;;;5018890;28;20045;-49
2023/12/02 07:01:26;;;;;;;;;;;-0.70;99.90;;;;;;5036651;28;20072;-49
2023/12/02 07:03:55;;;;;;;22.33;11.18;;;-0.70;99.90;;;;;;5035959;28;19921;-50
2023/12/02 07:06:21;;;;;;;24.92;11.95;;;-0.70;99.90;;;;;;5036441;28;20045;-49
2023/12/02 07:08:48;;;;;;;22.52;10.77;;;-0.70;99.90;;;;;;5036406;28;20050;-49
2023/12/02 07:11:14;;;;;;;25.00;11.00;;;-0.70;99.90;;;;;;5036449;28;20112;-49
2023/12/02 07:13:40;;;;;;;23.23;10.93;;;-0.70;99.90;;;;;;5036161;28;20089;-49
2023/12/02 07:16:06;;;;;;;23.40;11.07;;;-0.70;99.90;;;;;;5036162;28;20128;-49
2023/12/02 07:18:32;;;;;;;24.83;11.50;;;-0.60;99.90;;;;;;5018239;28;20479;-46
2023/12/02 07:20:58;;;;;;;22.30;10.50;;;-0.60;99.90;;;;;;5036053;28;20057;-46
2023/12/02 07:23:28;;;;;;;23.65;11.35;;;-0.60;99.90;;;;;;5036233;28;20060;-45
2023/12/02 07:25:54;;;;;;;22.98;11.10;;;-0.60;99.90;;;;;;5036121;28;20151;-47
2023/12/02 07:28:20;;;;;;;22.80;10.80;;;-0.60;99.90;;;;;;5036055;28;20103;-45
2023/12/02 07:30:48;;;;;;;23.92;11.63;;;-0.60;99.90;;;;;;5018089;28;20045;-47
2023/12/02 07:33:14;;;;;;;23.30;10.68;;;-0.60;99.90;;;;;;5036080;28;20132;-46
2023/12/02 07:35:40;;;;;;;24.58;10.18;;;-0.60;99.90;;;;;;5035980;28;20452;-47
2023/12/02 07:38:05;;;;;;;22.02;10.63;;;-0.60;99.90;;;;;;5035884;28;20041;-49
2023/12/02 07:40:31;;;;;;;23.88;10.70;;;-0.60;99.90;;;;;;5035747;28;20558;-45
2023/12/02 07:42:57;;;;;;;25.25;11.98;;;-0.60;99.90;;;;;;5035638;28;20049;-45
2023/12/02 07:45:22;;;;;;;23.30;11.40;;;-0.60;99.90;;;;;;5035351;28;20107;-45
2023/12/02 07:47:48;;;;;;;21.58;10.13;;;-0.60;99.90;;;;;;5035703;28;20048;-45
2023/12/02 07:50:14;;;;;;;20.80;10.32;;;-0.60;99.90;;;;;;5035615;28;20111;-44
2023/12/02 07:52:39;;;;;;;21.60;10.77;;;-0.60;99.90;;;;;;5035438;28;20052;-45
2023/12/02 07:55:05;;;;;;;21.08;10.25;;;-0.60;99.90;;;;;;5035401;28;20462;-45
2023/12/02 07:57:31;;;;;;;20.57;10.17;;;-0.60;99.90;;;;;;5035346;28;20506;-45
2023/12/02 07:59:57;;;;;;;22.92;10.25;;;-0.60;99.90;;;;;;5035112;28;20132;-45
2023/12/02 08:02:24;;;;;;;20.27;10.93;;;-0.60;99.90;;;;;;5035332;28;20045;-45
2023/12/02 08:04:50;;;;;;;21.15;10.32;;;-0.60;99.90;;;;;;5034200;28;20061;-44
2023/12/02 08:07:15;;;;;;;20.45;9.73;;;-0.70;99.90;;;;;;5017282;28;20103;-45
2023/12/02 08:09:41;;;;;;;19.27;9.68;;;-0.60;99.90;;;;;;5035145;28;20132;-45
2023/12/02 08:12:07;;;;;;;24.13;10.95;;;-0.70;99.90;;;;;;5035133;28;20053;-45
2023/12/02 08:14:33;;;;;;;21.77;10.38;;;-0.60;99.90;;;;;;5034735;28;20150;-45
2023/12/02 08:16:58;;;;;;;21.55;10.30;;;-0.60;99.90;;;;;;5017146;28;20037;-45
2023/12/02 08:19:24;;;;;;;21.52;10.68;;;-0.60;99.90;;;;;;5034968;28;20132;-45
2023/12/02 08:21:50;;;;;;;22.25;9.82;;;-0.60;99.90;;;;;;5034678;28;20072;-45
2023/12/02 08:24:16;;;;;;;21.20;10.55;;;-0.70;99.90;;;;;;5034849;28;20049;-45
2023/12/02 08:26:43;;;;;;;21.10;10.50;;;-0.70;99.90;;;;;;5034655;28;20053;-44
2023/12/02 08:29:08;;;;;;;21.45;9.77;;;-0.70;99.90;;;;;;5034690;28;20129;-44
2023/12/02 08:31:34;;;;;;;22.35;10.52;;;-0.70;99.90;;;;;;5034570;28;20080;-45
2023/12/02 08:34:00;;;;;;;21.88;10.50;;;-0.70;99.90;;;;;;5034743;28;20041;-44
2023/12/02 08:36:25;;;;;;;21.23;10.48;;;-0.60;99.90;;;;;;5016900;28;20048;-45
2023/12/02 08:38:51;;;;;;;20.60;10.52;;;-0.60;99.90;;;;;;5034830;28;20132;-45
2023/12/02 08:41:17;;;;;;;20.45;10.38;;;-0.60;99.90;;;;;;5016963;28;20419;-45
2023/12/02 08:43:42;;;;;;;23.13;10.13;;;-0.60;99.90;;;;;;5034492;28;20081;-46
2023/12/02 08:46:18;;;;;;;23.40;10.35;;;-0.60;99.90;;;;;;5034423;28;20048;-46
2023/12/02 08:48:44;;;;;;;21.48;10.80;;;-0.50;99.90;;;;;;5017085;28;20056;-46
2023/12/02 08:51:10;;;;;;;22.58;10.75;;;-0.50;99.90;;;;;;5034453;28;20133;-46
2023/12/02 08:53:36;;;;;;;22.42;10.52;;;-0.50;99.90;;;;;;5034353;28;20472;-47
2023/12/02 08:56:01;;;;;;;21.08;10.52;;;-0.50;99.90;;;;;;5034197;28;20077;-45
2023/12/02 08:58:27;;;;;;;20.40;9.75;;;-0.50;99.90;;;;;;5033959;28;20408;-45
2023/12/02 09:00:53;;;;;;;21.75;9.77;;;-0.50;99.90;;;;;;5016741;28;20087;-45
2023/12/02 09:03:18;;;;;;;21.95;10.23;;;-0.50;99.90;;;;;;5034132;28;20046;-45
2023/12/02 09:05:44;;;;;;;18.98;9.75;;;-0.50;99.90;;;;;;5016315;28;20099;-45
2023/12/02 09:08:11;;;;;;;21.27;9.57;;;-0.40;99.90;;;;;;5033981;28;20045;-45
2023/12/02 09:10:37;;;;;;;19.98;10.00;;;-0.40;99.90;;;;;;5033994;28;20472;-45
2023/12/02 09:13:42;;;;;;;20.23;9.75;;;-0.30;99.90;;;;;;5033881;28;20045;-44
2023/12/02 09:16:12;;;;;;;21.05;9.52;;;-0.30;99.90;;;;;;5031818;28;20097;-46
2023/12/02 09:18:38;;;;;;;23.05;10.68;;;-0.30;99.90;;;;;;5033720;28;20510;-45
2023/12/02 09:21:07;;;;;;;21.23;9.88;;;-0.30;99.90;;;;;;5033637;28;20053;-45
2023/12/02 09:23:33;;;;;;;22.27;10.20;;;-0.30;99.90;;;;;;5033649;28;20045;-44
2023/12/02 09:26:03;;;;;;;26.35;10.88;;;-0.30;99.90;;;;;;5034015;28;20045;-45
2023/12/02 09:28:29;;;;;;;21.48;9.73;;;-0.30;99.90;;;;;;5034039;28;20123;-45
2023/12/02 09:31:06;;;;;;;19.48;9.18;;;-0.30;99.90;;;;;;5033841;28;20084;-46
2023/12/02 09:33:32;;;;;;;19.73;9.63;;;-0.20;99.90;;;;;;5016103;28;20084;-45
2023/12/02 09:36:01;;;;;;;18.48;8.70;;;-0.20;99.90;;;;;;5033414;28;20050;-45
2023/12/02 09:38:28;;;;;;;21.30;10.02;;;-0.20;99.90;;;;;;5033704;28;20049;-45
2023/12/02 09:41:25;;;;;;;21.67;10.05;;;-0.10;99.90;;;;;;5033533;28;20133;-45
2023/12/02 09:44:13;;;;;;;22.25;10.02;;;-0.10;99.90;;;;;;5033515;28;20477;-49
2023/12/02 09:46:53;;;;;;;20.90;9.95;;;-0.10;99.90;;;;;;5033765;28;20045;-50
2023/12/02 09:49:28;;;;;;;23.58;10.43;;;-0.10;99.90;;;;;;5033596;28;20088;-49
2023/12/02 09:52:03;;;;;;;19.40;9.80;;;0.00;99.90;;;;;;5033542;28;20053;-47
2023/12/02 09:54:29;;;;;;;19.60;9.98;;;0.00;99.90;;;;;;5034138;28;20124;-50
2023/12/02 09:57:11;;;;;;;23.02;10.27;;;0.00;99.90;;;;;;5033186;28;20127;-49
2023/12/02 09:59:56;;;;;;;20.13;9.30;;;0.10;99.90;;;;;;5033458;28;20076;-49
2023/12/02 10:02:42;;;;;;;23.15;9.68;;;0.10;99.90;;;;;;5033459;28;20099;-48
2023/12/02 10:05:13;;;;;;;19.02;9.77;;;0.10;99.90;;;;;;5033389;28;20057;-45
2023/12/02 10:07:46;;;;;;;24.67;10.82;;;0.20;99.90;;;;;;5033457;28;20053;-48
2023/12/02 10:10:18;;;;;;;25.88;11.20;;;0.20;99.90;;;;;;5033713;28;20404;-48
2023/12/02 10:12:56;;;;;;;23.38;11.15;;;0.20;99.90;;;;;;5033544;28;20084;-47
2023/12/02 10:15:24;;;;;;;;;;;0.30;99.90;;;;;;5033623;28;20048;-47
2023/12/02 10:17:55;;;;;;;19.98;9.98;;;0.30;99.90;;;;;;5033212;28;19925;-46
2023/12/02 10:20:27;;;;;;;23.40;10.55;;;0.30;99.90;;;;;;5033346;28;20057;-46
2023/12/02 10:23:04;;;;;;;23.83;10.73;;;0.30;99.90;;;;;;5033469;28;20179;-46
2023/12/02 10:25:33;;;;;;;21.20;9.80;;;0.40;99.90;;;;;;5033377;28;20128;-46
2023/12/02 10:28:31;;;;;;;20.45;9.52;;;0.40;99.90;;;;;;5034858;28;20049;-46
2023/12/02 10:31:03;;;;;;;22.50;10.63;;;0.50;99.90;;;;;;5019836;28;20061;-47
2023/12/02 10:33:56;;;;;;;22.48;10.65;;;0.50;99.90;;;;;;5037124;28;20092;-46
2023/12/02 10:36:26;;;;;;;24.63;9.98;;;0.50;99.90;;;;;;5019067;28;20053;-46
2023/12/02 10:39:13;;;;;;;23.98;10.40;;;0.50;99.90;;;;;;5037087;28;20045;-46
2023/12/02 10:41:58;;;;;;;21.38;10.10;;;0.60;99.90;;;;;;5037090;28;20049;-46
2023/12/02 10:44:25;;;;;;;22.48;10.15;;;0.60;99.90;;;;;;5036823;28;20111;-46
2023/12/02 10:46:54;;;;;;;18.92;9.27;;;0.60;99.90;;;;;;5036636;28;20041;-46
2023/12/02 10:49:20;;;;;;;23.15;10.50;;;0.60;99.90;;;;;;5036781;28;20128;-46
2023/12/02 10:51:50;;;;;;;22.02;10.52;;;0.70;99.90;;;;;;5036911;28;20076;-46
2023/12/02 10:54:17;;;;;;;19.13;9.00;;;0.70;99.90;;;;;;5036690;28;20067;-46
2023/12/02 10:56:48;;;;;;;23.15;10.18;;;0.70;99.90;;;;;;5036641;28;20085;-46
2023/12/02 10:59:16;;;;;;;20.25;8.70;;;0.70;99.90;;;;;;5036388;28;20480;-46
2023/12/02 11:01:52;;;;;;;20.80;9.82;;;0.80;99.90;;;;;;5036853;28;20045;-45
2023/12/02 11:04:33;;;;;;;19.17;9.73;;;0.80;99.90;;;;;;5036439;28;20508;-47
2023/12/02 11:07:03;;;;;;;21.77;10.35;;;0.80;99.90;;;;;;5036609;28;20053;-46
2023/12/02 11:09:48;;;;;;;22.83;10.63;;;0.80;99.90;;;;;;5036290;28;20412;-46
2023/12/02 11:12:32;;;;;;;19.50;10.32;;;0.80;99.90;;;;;;5036414;28;20046;-46
2023/12/02 11:15:04;;;;;;;20.48;9.10;;;0.90;99.90;;;;;;5036572;28;20100;-47
2023/12/02 11:18:10;;;;;;;20.33;9.40;;;0.90;99.90;;;;;;5036240;28;20048;-46
2023/12/02 11:20:57;;;;;;;19.73;9.70;;;0.90;99.90;;;;;;5032612;28;20242;-46
2023/12/02 11:23:50;;;;;;;21.83;9.45;;;1.00;99.90;;;;;;5036169;28;20056;-46
2023/12/02 11:26:47;;;;;;;21.23;8.82;;;0.90;99.90;;;;;;5035919;28;20045;-46
2023/12/02 11:29:28;;;;;;;21.95;10.18;;;1.00;99.90;;;;;;5036089;28;20057;-46
2023/12/02 11:32:12;;;;;;;28.17;13.52;;;1.10;99.90;;;;;;5036131;28;20049;-46
2023/12/02 11:35:17;;;;;;;27.15;12.15;;;1.20;99.90;;;;;;5036112;28;20045;-46
2023/12/02 11:38:03;;;;;;;41.67;24.70;;;1.30;99.90;;;;;;4959132;28;20062;-46
2023/12/02 11:40:41;;;;;;;22.63;10.95;;;1.20;99.90;;;;;;5033209;28;20496;-48
2023/12/02 11:43:19;;;;;;;15.85;8.57;;;1.20;99.90;;;;;;5035509;28;20045;-46
2023/12/02 11:46:03;;;;;;;15.00;7.38;;;1.30;99.90;;;;;;5036033;28;20049;-46
2023/12/02 11:48:54;;;;;;;17.23;7.93;;;1.30;99.90;;;;;;5035692;28;20087;-47
2023/12/02 11:51:44;;;;;;;15.65;8.00;;;1.30;99.90;;;;;;5035643;28;20128;-46
2023/12/02 11:54:25;;;;;;;14.85;6.63;;;1.30;99.90;;;;;;5035869;28;20049;-46
2023/12/02 11:57:08;;;;;;;18.60;8.18;;;1.40;99.90;;;;;;5035605;28;20484;-49
2023/12/02 11:59:48;;;;;;;17.55;6.88;;;1.30;99.90;;;;;;5018009;28;20076;-46
2023/12/02 12:02:42;;;;;;;17.52;7.72;;;1.30;99.90;;;;;;5035626;28;20508;-48
2023/12/02 12:05:41;;;;;;;15.05;7.10;;;1.30;99.90;;;;;;5035515;28;20412;-46
2023/12/02 12:08:20;;;;;;;14.35;6.25;;;1.30;99.90;;;;;;4997102;28;20408;-46
2023/12/02 12:10:49;;;;;;;15.35;6.30;;;1.30;99.90;;;;;;5035515;28;20053;-47
2023/12/02 12:13:19;;;;;;;12.65;5.43;;;1.20;99.90;;;;;;5035602;28;20045;-46
2023/12/02 12:15:46;;;;;;;14.50;6.30;;;1.20;99.90;;;;;;5035124;28;20092;-46
2023/12/02 12:18:13;;;;;;;15.63;5.93;;;1.20;99.90;;;;;;5034965;28;20377;-46
2023/12/02 12:20:41;;;;;;;13.48;5.53;;;1.20;99.90;;;;;;5034948;28;20103;-47
2023/12/02 12:23:07;;;;;;;10.70;4.75;;;1.20;99.90;;;;;;5035061;28;20045;-47
2023/12/02 12:25:33;;;;;;;11.73;5.00;;;1.20;99.90;;;;;;5035006;28;20076;-46
2023/12/02 12:28:03;;;;;;;11.80;5.47;;;1.10;99.90;;;;;;5034759;28;20116;-46
2023/12/02 12:30:48;;;;;;;10.30;5.10;;;1.30;99.90;;;;;;5034720;28;20056;-47
2023/12/02 12:33:16;;;;;;;11.77;5.45;;;1.30;99.90;;;;;;5017325;28;20089;-50
2023/12/02 12:35:42;;;;;;;12.10;5.50;;;1.30;99.90;;;;;;5034803;28;20045;-50
2023/12/02 12:38:09;;;;;;;12.23;5.33;;;1.30;99.90;;;;;;5034792;28;20424;-51
2023/12/02 12:40:36;;;;;;;12.05;4.65;;;1.40;99.90;;;;;;5034658;28;20284;-51
2023/12/02 12:43:02;;;;;;;11.95;5.38;;;1.50;99.90;;;;;;5034686;28;20463;-48